Time;durP1;ratioP1;P1;durP2;ratioP2;P2;SDS_P1;SDS_P2;PMS_P1;PMS_P2;Temp;Humidity;BMP_temperature;BMP_pressure;BME280_temperature;BME280_humidity;BME280_pressure;Samples;Min_cycle;Max_cycle;Signal;HPM_P1;HPM_P2
2021/06/03 00:00:12;;;;;;;4.10;3.33;;;;;;;;;;5055332;28;20037;-81
2021/06/03 00:02:37;;;;;;;6.00;2.90;;;;;;;;;;5054957;28;20060;-81
2021/06/03 00:05:05;;;;;;;5.30;3.22;;;;;;;;;;5054217;28;20419;-81
2021/06/03 00:07:31;;;;;;;11.88;3.08;;;;;;;;;;5060772;28;20128;-81
2021/06/03 00:09:56;;;;;;;4.45;2.63;;;;;;;;;;5063529;28;20029;-81
2021/06/03 00:12:22;;;;;;;6.80;2.95;;;;;;;;;;5069104;28;20033;-81
2021/06/03 00:14:47;;;;;;;3.88;2.55;;;;;;;;;;5072834;28;20044;-81
2021/06/03 00:17:12;;;;;;;6.07;2.60;;;;;;;;;;5071734;28;20024;-81
2021/06/03 00:19:38;;;;;;;4.18;2.70;;;;;;;;;;5071379;28;20037;-81
2021/06/03 00:22:03;;;;;;;4.30;2.47;;;;;;;;;;5071307;28;20048;-81
2021/06/03 00:24:30;;;;;;;3.53;2.55;;;;;;;;;;5071461;28;20025;-81
2021/06/03 00:26:55;;;;;;;3.70;2.35;;;;;;;;;;5071548;28;20049;-81
2021/06/03 00:29:21;;;;;;;4.07;2.78;;;;;;;;;;5069449;28;20036;-81
2021/06/03 00:31:46;;;;;;;5.25;2.47;;;;;;;;;;5069780;28;20037;-81
2021/06/03 00:34:12;;;;;;;3.63;3.08;;;;;;;;;;5079881;28;20032;-81
2021/06/03 00:36:37;;;;;;;4.00;2.90;;;;;;;;;;5084375;28;20040;-81
2021/06/03 00:39:04;;;;;;;3.67;2.65;;;;;;;;;;5057314;28;20422;-81
2021/06/03 00:41:30;;;;;;;4.80;2.53;;;;;;;;;;5056119;28;20573;-81
2021/06/03 00:43:56;;;;;;;6.97;3.30;;;;;;;;;;5046844;28;20045;-81
2021/06/03 00:46:22;;;;;;;6.82;3.85;;;;;;;;;;5052133;28;20085;-81
2021/06/03 00:48:47;;;;;;;6.20;2.97;;;;;;;;;;5056905;28;20038;-81
2021/06/03 00:51:12;;;;;;;3.38;2.88;;;;;;;;;;5047465;28;20124;-81
2021/06/03 00:53:40;;;;;;;7.75;2.60;;;;;;;;;;5044879;28;20029;-81
2021/06/03 00:56:06;;;;;;;4.63;2.80;;;;;;;;;;5046125;28;20557;-81
2021/06/03 00:58:37;;;;;;;4.25;2.60;;;;;;;;;;5047172;28;20037;-81
2021/06/03 01:01:09;;;;;;;10.48;4.43;;;;;;;;;;5045070;28;20063;-81
2021/06/03 01:03:36;;;;;;;5.70;3.35;;;;;;;;;;5047971;28;20030;-81
2021/06/03 01:06:07;;;;;;;8.45;3.58;;;;;;;;;;5046734;28;20033;-80
2021/06/03 01:08:40;;;;;;;7.38;2.90;;;;;;;;;;5060433;28;20371;-81
2021/06/03 01:11:23;;;;;;;6.38;2.70;;;;;;;;;;5063615;28;20044;-80
2021/06/03 01:13:57;;;;;;;9.05;3.47;;;;;;;;;;5053563;28;20037;-80
2021/06/03 01:16:26;;;;;;;4.25;3.08;;;;;;;;;;5046614;28;20029;-81
2021/06/03 01:18:54;;;;;;;8.32;3.30;;;;;;;;;;5045806;28;20038;-80
2021/06/03 01:21:39;;;;;;;4.78;3.42;;;;;;;;;;5043737;28;20036;-80
2021/06/03 01:24:26;;;;;;;7.22;3.40;;;;;;;;;;5026824;28;20037;-81
2021/06/03 01:26:57;;;;;;;3.42;2.88;;;;;;;;;;5044329;28;20033;-80
2021/06/03 01:29:28;;;;;;;3.83;3.00;;;;;;;;;;5044507;28;20025;-80
2021/06/03 01:31:56;;;;;;;4.78;2.83;;;;;;;;;;5044219;28;20034;-80
2021/06/03 01:34:27;;;;;;;4.53;2.60;;;;;;;;;;5044819;28;20031;-80
2021/06/03 01:37:00;;;;;;;4.93;3.25;;;;;;;;;;5049227;28;20402;-80
2021/06/03 01:39:26;;;;;;;6.05;2.65;;;;;;;;;;5050521;28;20033;-80
2021/06/03 01:41:55;;;;;;;4.50;2.60;;;;;;;;;;5056547;28;20048;-80
2021/06/03 01:44:21;;;;;;;10.95;3.30;;;;;;;;;;5063566;28;20033;-80
2021/06/03 01:46:50;;;;;;;7.78;3.47;;;;;;;;;;5047032;28;20037;-80
2021/06/03 01:49:17;;;;;;;5.47;3.10;;;;;;;;;;5041731;28;20032;-80
2021/06/03 01:51:43;;;;;;;5.43;3.15;;;;;;;;;;5041935;28;20548;-80
2021/06/03 01:54:09;;;;;;;4.32;3.00;;;;;;;;;;5040433;28;20038;-80
2021/06/03 01:56:35;;;;;;;9.05;2.97;;;;;;;;;;5040862;28;20132;-80
2021/06/03 01:59:02;;;;;;;3.88;3.17;;;;;;;;;;5040006;28;20036;-80
2021/06/03 02:01:29;;;;;;;8.32;3.25;;;;;;;;;;5024233;28;20410;-80
2021/06/03 02:03:54;;;;;;;4.45;3.10;;;;;;;;;;5025007;28;20029;-80
2021/06/03 02:06:20;;;;;;;5.38;3.33;;;;;;;;;;5041489;28;20072;-80
2021/06/03 02:08:46;;;;;;;5.43;3.28;;;;;;;;;;5056730;28;20397;-80
2021/06/03 02:11:19;;;;;;;4.30;3.22;;;;;;;;;;5053253;28;20033;-80
2021/06/03 02:13:47;;;;;;;3.58;2.95;;;;;;;;;;5056789;28;20029;-80
2021/06/03 02:16:59;;;;;;;4.03;3.22;;;;;;;;;;5050380;28;20037;-81
2021/06/03 02:19:38;;;;;;;6.68;3.15;;;;;;;;;;5039530;28;20033;-80
2021/06/03 02:22:05;;;;;;;3.70;3.30;;;;;;;;;;5039457;28;20034;-80
2021/06/03 02:24:34;;;;;;;3.45;2.58;;;;;;;;;;5038967;28;20045;-80
2021/06/03 02:26:59;;;;;;;5.78;3.10;;;;;;;;;;5040836;28;20438;-81
2021/06/03 02:29:26;;;;;;;3.75;2.83;;;;;;;;;;5043870;28;20030;-80
2021/06/03 02:32:15;;;;;;;3.90;2.90;;;;;;;;;;5039234;28;20039;-80
2021/06/03 02:34:48;;;;;;;4.40;3.60;;;;;;;;;;5022722;28;20087;-80
2021/06/03 02:37:15;;;;;;;12.57;3.92;;;;;;;;;;5038722;28;20140;-80
2021/06/03 02:39:46;;;;;;;8.10;4.15;;;;;;;;;;5037458;28;20034;-80
2021/06/03 02:42:12;;;;;;;7.63;4.20;;;;;;;;;;5048063;28;20045;-80
2021/06/03 02:44:39;;;;;;;4.70;3.38;;;;;;;;;;5046200;28;20113;-80
2021/06/03 02:47:06;;;;;;;3.83;3.35;;;;;;;;;;5040879;28;20049;-80
2021/06/03 02:49:33;;;;;;;4.95;3.55;;;;;;;;;;5040832;28;20438;-80
2021/06/03 02:52:01;;;;;;;6.43;4.45;;;;;;;;;;5040414;28;20064;-80
2021/06/03 02:54:29;;;;;;;5.72;3.40;;;;;;;;;;5038012;28;20037;-80
2021/06/03 02:56:56;;;;;;;4.30;3.20;;;;;;;;;;5038566;28;20484;-80
2021/06/03 02:59:21;;;;;;;10.90;4.10;;;;;;;;;;5038379;28;20034;-80
2021/06/03 03:01:47;;;;;;;6.32;3.53;;;;;;;;;;5040488;28;20029;-80
2021/06/03 03:04:13;;;;;;;7.72;3.50;;;;;;;;;;5040231;28;20160;-80
2021/06/03 03:06:39;;;;;;;3.53;3.13;;;;;;;;;;5045648;28;20053;-80
2021/06/03 03:09:05;;;;;;;5.65;3.67;;;;;;;;;;5083302;28;20036;-80
2021/06/03 03:11:31;;;;;;;7.05;4.75;;;;;;;;;;5067751;28;20119;-80
2021/06/03 03:13:57;;;;;;;8.13;4.57;;;;;;;;;;5048650;28;20651;-81
2021/06/03 03:16:23;;;;;;;7.45;4.82;;;;;;;;;;5042299;28;20483;-80
2021/06/03 03:18:51;;;;;;;9.13;4.43;;;;;;;;;;5058275;28;20028;-80
2021/06/03 03:21:17;;;;;;;5.30;3.85;;;;;;;;;;5065807;28;20041;-81
2021/06/03 03:23:45;;;;;;;4.53;3.60;;;;;;;;;;5061811;28;20037;-81
2021/06/03 03:26:11;;;;;;;5.18;3.38;;;;;;;;;;5042518;28;20040;-81
2021/06/03 03:28:37;;;;;;;10.93;3.33;;;;;;;;;;5057134;28;20056;-80
2021/06/03 03:31:03;;;;;;;5.82;2.83;;;;;;;;;;5065635;28;20029;-80
2021/06/03 03:33:31;;;;;;;4.60;3.13;;;;;;;;;;5064910;28;20012;-80
2021/06/03 03:35:56;;;;;;;4.72;3.30;;;;;;;;;;5054299;28;20053;-80
2021/06/03 03:38:28;;;;;;;8.52;3.97;;;;;;;;;;5083532;28;20414;-80
2021/06/03 03:41:03;;;;;;;4.78;3.28;;;;;;;;;;5087498;28;20036;-81
2021/06/03 03:43:30;;;;;;;6.68;3.50;;;;;;;;;;5045504;28;20053;-81
2021/06/03 03:45:56;;;;;;;8.55;3.25;;;;;;;;;;5028986;28;20037;-81
2021/06/03 03:48:22;;;;;;;7.57;3.80;;;;;;;;;;5046411;28;20036;-81
2021/06/03 03:50:48;;;;;;;6.13;4.07;;;;;;;;;;5045614;28;20030;-81
2021/06/03 03:53:19;;;;;;;6.53;3.88;;;;;;;;;;5045671;28;20029;-81
2021/06/03 03:55:44;;;;;;;4.85;3.72;;;;;;;;;;5046546;28;20079;-81
2021/06/03 03:58:10;;;;;;;6.00;3.47;;;;;;;;;;5047027;28;20085;-81
2021/06/03 04:00:36;;;;;;;8.32;3.67;;;;;;;;;;5030593;28;20052;-81
2021/06/03 04:03:12;;;;;;;11.05;4.57;;;;;;;;;;5043807;28;20033;-81
2021/06/03 04:05:38;;;;;;;4.63;3.42;;;;;;;;;;5042633;28;20064;-80
2021/06/03 04:08:08;;;;;;;8.23;3.30;;;;;;;;;;5043975;28;20033;-80
2021/06/03 04:10:35;;;;;;;5.43;3.20;;;;;;;;;;5047808;28;20032;-81
2021/06/03 04:13:01;;;;;;;5.95;3.50;;;;;;;;;;5060517;28;20081;-81
2021/06/03 04:15:28;;;;;;;6.22;3.25;;;;;;;;;;5045150;28;20040;-81
2021/06/03 04:17:55;;;;;;;9.77;4.35;;;;;;;;;;5044128;28;20033;-81
2021/06/03 04:20:25;;;;;;;5.15;3.63;;;;;;;;;;5051504;28;20034;-81
2021/06/03 04:22:53;;;;;;;6.18;3.63;;;;;;;;;;5060661;28;20033;-81
2021/06/03 04:25:22;;;;;;;6.43;4.05;;;;;;;;;;5046618;28;20072;-81
2021/06/03 04:27:48;;;;;;;6.25;3.88;;;;;;;;;;5062818;28;20033;-81
2021/06/03 04:30:17;;;;;;;5.85;3.80;;;;;;;;;;5062233;28;20476;-80
2021/06/03 04:32:43;;;;;;;4.63;3.78;;;;;;;;;;5066529;28;20041;-80
2021/06/03 04:35:09;;;;;;;5.65;4.47;;;;;;;;;;5057377;28;20060;-80
2021/06/03 04:37:34;;;;;;;4.82;3.58;;;;;;;;;;5057185;28;20033;-81
2021/06/03 04:40:01;;;;;;;8.15;3.92;;;;;;;;;;5064458;28;20032;-81
2021/06/03 04:42:26;;;;;;;5.25;3.35;;;;;;;;;;5066611;28;20048;-81
2021/06/03 04:44:52;;;;;;;8.10;3.80;;;;;;;;;;5049451;28;20037;-81
2021/06/03 04:47:17;;;;;;;8.30;4.40;;;;;;;;;;5046067;28;20037;-80
2021/06/03 04:49:43;;;;;;;6.25;3.92;;;;;;;;;;5047330;28;20041;-80
2021/06/03 04:52:28;;;;;;;5.03;3.80;;;;;;;;;;5055912;28;20029;-80
2021/06/03 04:54:56;;;;;;;8.77;3.78;;;;;;;;;;5062260;28;20033;-80
2021/06/03 04:57:23;;;;;;;4.25;3.80;;;;;;;;;;5066959;28;20056;-81
2021/06/03 04:59:49;;;;;;;6.72;3.67;;;;;;;;;;5067362;28;20037;-81
2021/06/03 05:02:16;;;;;;;5.20;3.60;;;;;;;;;;5067680;28;20044;-81
2021/06/03 05:04:41;;;;;;;8.55;3.95;;;;;;;;;;5066882;28;20039;-81
2021/06/03 05:07:07;;;;;;;7.90;3.85;;;;;;;;;;5050025;28;20061;-81
2021/06/03 05:09:32;;;;;;;8.05;3.55;;;;;;;;;;5069465;28;20044;-81
2021/06/03 05:11:58;;;;;;;6.10;4.25;;;;;;;;;;5087334;28;20119;-81
2021/06/03 05:14:23;;;;;;;10.40;3.70;;;;;;;;;;5071959;28;20037;-81
2021/06/03 05:16:49;;;;;;;8.05;3.70;;;;;;;;;;5050684;28;20090;-81
2021/06/03 05:19:15;;;;;;;6.57;3.75;;;;;;;;;;5045573;28;20061;-79
2021/06/03 05:21:41;;;;;;;4.95;3.95;;;;;;;;;;5044015;28;20033;-78
2021/06/03 05:24:06;;;;;;;7.53;3.80;;;;;;;;;;5044958;28;20064;-79
2021/06/03 05:26:32;;;;;;;6.10;3.58;;;;;;;;;;5040468;28;20029;-78
2021/06/03 05:28:57;;;;;;;10.85;5.05;;;;;;;;;;5036369;28;20492;-78
2021/06/03 05:31:23;;;;;;;5.45;3.42;;;;;;;;;;5046746;28;20456;-79
2021/06/03 05:33:48;;;;;;;9.00;3.25;;;;;;;;;;5041253;28;20269;-77
2021/06/03 05:36:13;;;;;;;5.78;3.65;;;;;;;;;;5043404;28;20037;-79
2021/06/03 05:38:39;;;;;;;7.60;3.17;;;;;;;;;;5043701;28;20060;-79
2021/06/03 05:41:04;;;;;;;4.45;3.20;;;;;;;;;;5058528;28;20037;-78
2021/06/03 05:43:30;;;;;;;5.28;3.38;;;;;;;;;;5063546;28;20052;-80
2021/06/03 05:45:55;;;;;;;5.13;3.60;;;;;;;;;;5065445;28;20043;-79
2021/06/03 05:48:21;;;;;;;9.77;3.58;;;;;;;;;;5064231;28;20036;-79
2021/06/03 05:50:46;;;;;;;6.25;3.65;;;;;;;;;;5058029;28;20090;-78
2021/06/03 05:53:11;;;;;;;4.57;3.35;;;;;;;;;;5058781;28;20103;-78
2021/06/03 05:55:37;;;;;;;10.35;3.75;;;;;;;;;;5042351;28;20489;-78
2021/06/03 05:58:02;;;;;;;6.90;3.75;;;;;;;;;;5058268;28;20490;-78
2021/06/03 06:00:33;;;;;;;6.60;3.65;;;;;;;;;;5060603;28;20461;-78
2021/06/03 06:03:17;;;;;;;5.85;3.50;;;;;;;;;;5060900;28;20043;-77
2021/06/03 06:08:27;;;;;;;7.18;3.97;;;;;;;;;;5055746;28;20033;-80
2021/06/03 06:10:52;;;;;;;11.13;4.13;;;;;;;;;;5055325;28;20108;-78
2021/06/03 06:13:18;;;;;;;6.45;4.07;;;;;;;;;;5055036;28;20033;-78
2021/06/03 06:15:43;;;;;;;6.70;3.50;;;;;;;;;;5057613;28;20040;-78
2021/06/03 06:18:09;;;;;;;7.43;3.90;;;;;;;;;;5057380;28;20041;-78
2021/06/03 06:20:35;;;;;;;8.27;3.08;;;;;;;;;;5058120;28;20044;-78
2021/06/03 06:23:01;;;;;;;7.63;3.30;;;;;;;;;;5057589;28;20041;-78
2021/06/03 06:25:26;;;;;;;5.18;3.00;;;;;;;;;;5040009;28;20064;-78
2021/06/03 06:27:52;;;;;;;9.90;3.47;;;;;;;;;;5056163;28;20037;-78
2021/06/03 06:30:18;;;;;;;4.65;3.50;;;;;;;;;;5038048;28;20028;-78
2021/06/03 06:32:43;;;;;;;7.05;3.30;;;;;;;;;;5055230;28;20402;-78
2021/06/03 06:35:11;;;;;;;4.13;2.90;;;;;;;;;;5056289;28;20047;-78
2021/06/03 06:37:38;;;;;;;4.05;3.05;;;;;;;;;;5055355;28;20098;-79
2021/06/03 06:40:05;;;;;;;6.75;3.35;;;;;;;;;;5054169;28;20033;-79
2021/06/03 06:42:31;;;;;;;6.38;3.40;;;;;;;;;;5039994;28;20050;-79
2021/06/03 06:44:57;;;;;;;4.57;3.53;;;;;;;;;;5042427;28;20060;-79
2021/06/03 06:47:22;;;;;;;8.10;3.90;;;;;;;;;;5044339;28;20033;-79
2021/06/03 06:49:48;;;;;;;7.65;3.95;;;;;;;;;;5042041;28;20127;-77
2021/06/03 06:52:15;;;;;;;5.45;3.22;;;;;;;;;;5038637;28;20041;-77
2021/06/03 06:54:41;;;;;;;4.97;3.13;;;;;;;;;;5040109;28;20053;-80
2021/06/03 06:57:07;;;;;;;12.15;3.85;;;;;;;;;;5039191;28;20091;-76
2021/06/03 06:59:32;;;;;;;6.50;3.10;;;;;;;;;;5038372;28;20037;-76
2021/06/03 07:01:58;;;;;;;6.82;2.80;;;;;;;;;;5039225;28;20105;-78
2021/06/03 07:04:23;;;;;;;9.13;3.17;;;;;;;;;;5041019;28;20037;-78
2021/06/03 07:06:49;;;;;;;10.18;2.92;;;;;;;;;;5038229;28;20045;-77
2021/06/03 07:09:15;;;;;;;7.10;2.88;;;;;;;;;;5043760;28;20040;-77
2021/06/03 07:11:40;;;;;;;7.63;2.65;;;;;;;;;;5060582;28;20041;-77
2021/06/03 07:14:06;;;;;;;8.27;2.88;;;;;;;;;;5058534;28;20037;-77
2021/06/03 07:16:31;;;;;;;5.53;2.40;;;;;;;;;;5058545;28;20037;-77
2021/06/03 07:18:57;;;;;;;5.53;2.90;;;;;;;;;;5059056;28;20025;-77
2021/06/03 07:21:22;;;;;;;10.93;2.47;;;;;;;;;;5057687;28;20067;-77
2021/06/03 07:23:49;;;;;;;4.60;2.60;;;;;;;;;;5058244;28;20056;-77
2021/06/03 07:26:15;;;;;;;5.05;3.05;;;;;;;;;;5058189;28;20040;-78
2021/06/03 07:28:41;;;;;;;4.30;2.58;;;;;;;;;;5057101;28;20043;-77
2021/06/03 07:31:08;;;;;;;7.57;2.65;;;;;;;;;;5058243;28;20033;-78
2021/06/03 07:33:33;;;;;;;7.82;2.90;;;;;;;;;;5061112;28;20068;-79
2021/06/03 07:35:58;;;;;;;3.65;2.00;;;;;;;;;;5061614;28;20040;-80
2021/06/03 07:38:24;;;;;;;5.40;2.30;;;;;;;;;;5061213;28;20024;-80
2021/06/03 07:40:50;;;;;;;5.32;2.13;;;;;;;;;;5045030;28;20603;-79
2021/06/03 07:43:15;;;;;;;10.48;2.40;;;;;;;;;;5042244;28;20041;-81
2021/06/03 07:45:42;;;;;;;4.13;2.40;;;;;;;;;;5042807;28;20075;-80
2021/06/03 07:48:08;;;;;;;14.82;2.60;;;;;;;;;;5041879;28;20439;-81
2021/06/03 07:50:35;;;;;;;3.17;2.30;;;;;;;;;;5038377;28;20056;-79
2021/06/03 07:53:02;;;;;;;2.97;1.95;;;;;;;;;;5035601;28;20037;-78
2021/06/03 07:55:27;;;;;;;6.20;2.20;;;;;;;;;;5039552;28;20502;-80
2021/06/03 07:57:56;;;;;;;5.47;2.42;;;;;;;;;;5041959;28;20034;-80
2021/06/03 08:00:23;;;;;;;4.75;2.10;;;;;;;;;;5040673;28;20510;-79
2021/06/03 08:02:49;;;;;;;4.53;2.20;;;;;;;;;;5020637;28;20041;-80
2021/06/03 08:05:23;;;;;;;6.30;2.80;;;;;;;;;;5038252;28;20066;-79
2021/06/03 08:07:55;;;;;;;9.35;2.22;;;;;;;;;;5038962;28;20100;-79
2021/06/03 08:10:27;;;;;;;3.83;1.90;;;;;;;;;;5035112;28;20037;-80
2021/06/03 08:12:53;;;;;;;4.20;2.10;;;;;;;;;;5036952;28;20087;-79
2021/06/03 08:15:20;;;;;;;4.00;2.22;;;;;;;;;;5063474;28;20044;-80
2021/06/03 08:17:46;;;;;;;3.83;2.03;;;;;;;;;;5077866;28;20086;-79
2021/06/03 08:20:15;;;;;;;2.75;2.10;;;;;;;;;;5078955;28;20044;-80
2021/06/03 08:22:41;;;;;;;7.85;2.00;;;;;;;;;;5080191;28;20089;-80
2021/06/03 08:25:08;;;;;;;4.78;2.40;;;;;;;;;;5080280;28;20111;-79
2021/06/03 08:27:33;;;;;;;5.13;2.22;;;;;;;;;;5079973;28;20033;-82
2021/06/03 08:29:59;;;;;;;3.20;1.88;;;;;;;;;;5079764;28;20079;-80
2021/06/03 08:32:24;;;;;;;5.78;2.30;;;;;;;;;;5079403;28;20040;-79
2021/06/03 08:34:50;;;;;;;5.05;2.15;;;;;;;;;;5079931;28;20040;-79
2021/06/03 08:37:15;;;;;;;7.55;2.30;;;;;;;;;;5080104;28;20402;-79
2021/06/03 08:39:41;;;;;;;2.70;1.88;;;;;;;;;;5070686;28;20044;-80
2021/06/03 08:42:07;;;;;;;6.47;2.08;;;;;;;;;;5059230;28;20061;-79
2021/06/03 08:44:32;;;;;;;2.85;2.00;;;;;;;;;;5057486;28;20037;-79
2021/06/03 08:46:58;;;;;;;4.65;2.15;;;;;;;;;;5059259;28;20037;-80
2021/06/03 08:49:24;;;;;;;8.23;2.28;;;;;;;;;;5046946;28;20037;-79
2021/06/03 08:51:52;;;;;;;7.40;2.97;;;;;;;;;;5038768;28;20048;-79
2021/06/03 08:54:17;;;;;;;5.00;2.00;;;;;;;;;;5038759;28;20065;-79
2021/06/03 08:56:43;;;;;;;5.32;2.10;;;;;;;;;;5038842;28;20056;-79
2021/06/03 08:59:09;;;;;;;4.82;1.90;;;;;;;;;;5037243;28;20033;-79
2021/06/03 09:01:34;;;;;;;3.15;1.75;;;;;;;;;;5038391;28;20048;-79
2021/06/03 09:04:00;;;;;;;6.80;1.67;;;;;;;;;;5038341;28;20049;-79
2021/06/03 09:06:26;;;;;;;5.35;1.70;;;;;;;;;;5036892;28;20064;-80
2021/06/03 09:08:59;;;;;;;2.53;1.80;;;;;;;;;;5038636;28;20033;-79
2021/06/03 09:11:30;;;;;;;5.68;1.98;;;;;;;;;;5054760;28;20025;-80
2021/06/03 09:13:58;;;;;;;5.28;1.90;;;;;;;;;;5056115;28;20040;-79
2021/06/03 09:16:28;;;;;;;6.35;1.80;;;;;;;;;;5057586;28;20087;-79
2021/06/03 09:18:58;;;;;;;3.72;2.00;;;;;;;;;;5057789;28;20041;-80
2021/06/03 09:21:29;;;;;;;4.72;1.55;;;;;;;;;;5055736;28;20086;-80
2021/06/03 09:24:28;;;;;;;5.45;1.85;;;;;;;;;;5057209;28;20028;-80
2021/06/03 09:26:56;;;;;;;3.90;1.70;;;;;;;;;;5056049;28;20376;-79
2021/06/03 09:29:25;;;;;;;2.25;1.55;;;;;;;;;;5055741;28;20083;-81
2021/06/03 09:31:52;;;;;;;5.40;2.03;;;;;;;;;;5056803;28;20119;-79
2021/06/03 09:34:22;;;;;;;5.15;1.70;;;;;;;;;;5057243;28;20083;-80
2021/06/03 09:36:49;;;;;;;6.13;1.77;;;;;;;;;;5055493;28;20087;-80
2021/06/03 09:39:39;;;;;;;4.57;2.08;;;;;;;;;;5056480;28;20033;-79
2021/06/03 09:42:06;;;;;;;5.63;2.00;;;;;;;;;;5035120;28;20081;-79
2021/06/03 09:44:50;;;;;;;2.25;1.70;;;;;;;;;;5036506;28;20534;-79
2021/06/03 09:47:17;;;;;;;3.92;1.98;;;;;;;;;;5034914;28;20054;-79
2021/06/03 09:49:57;;;;;;;6.93;1.60;;;;;;;;;;5036664;28;20034;-79
2021/06/03 09:52:28;;;;;;;3.53;1.60;;;;;;;;;;5037832;28;20056;-79
2021/06/03 09:55:00;;;;;;;3.17;1.50;;;;;;;;;;5039436;28;20044;-79
2021/06/03 09:57:33;;;;;;;2.13;1.40;;;;;;;;;;5040883;28;20119;-79
2021/06/03 10:00:10;;;;;;;3.53;1.50;;;;;;;;;;5040317;28;20040;-79
2021/06/03 10:02:42;;;;;;;8.10;1.73;;;;;;;;;;5040069;28;20029;-80
2021/06/03 10:05:14;;;;;;;8.57;1.52;;;;;;;;;;5040026;28;20418;-79
2021/06/03 10:07:56;;;;;;;3.05;1.40;;;;;;;;;;5039048;28;20044;-80
2021/06/03 10:10:22;;;;;;;2.55;1.30;;;;;;;;;;5044012;28;20490;-79
2021/06/03 10:12:49;;;;;;;2.05;1.35;;;;;;;;;;5059465;28;20127;-80
2021/06/03 10:15:32;;;;;;;3.83;1.50;;;;;;;;;;5058821;28;20033;-80
2021/06/03 10:18:01;;;;;;;4.97;1.30;;;;;;;;;;5056272;28;20123;-79
2021/06/03 10:20:34;;;;;;;3.88;1.42;;;;;;;;;;5060067;28;20040;-81
2021/06/03 10:23:00;;;;;;;6.53;1.60;;;;;;;;;;5058401;28;20045;-82
2021/06/03 10:25:28;;;;;;;6.32;1.73;;;;;;;;;;5059473;28;20041;-80
2021/06/03 10:27:56;;;;;;;4.38;1.90;;;;;;;;;;5058616;28;20060;-79
2021/06/03 10:30:33;;;;;;;1.30;1.20;;;;;;;;;;5057294;28;20025;-78
2021/06/03 10:33:03;;;;;;;1.50;1.02;;;;;;;;;;5056758;28;20059;-79
2021/06/03 10:35:32;;;;;;;1.60;1.20;;;;;;;;;;5061169;28;20056;-80
2021/06/03 10:37:59;;;;;;;2.25;1.27;;;;;;;;;;5055573;28;20042;-77
2021/06/03 10:40:34;;;;;;;1.67;1.10;;;;;;;;;;5050901;28;20123;-78
2021/06/03 10:43:01;;;;;;;5.45;1.23;;;;;;;;;;5053393;28;20110;-78
2021/06/03 10:45:29;;;;;;;2.80;1.45;;;;;;;;;;5052899;28;20079;-78
2021/06/03 10:47:55;;;;;;;4.60;1.50;;;;;;;;;;5054019;28;20048;-79
2021/06/03 10:50:27;;;;;;;2.50;1.15;;;;;;;;;;5060031;28;20033;-83
2021/06/03 10:52:53;;;;;;;4.55;3.15;;;;;;;;;;5060778;28;20037;-80
2021/06/03 10:55:30;;;;;;;3.38;1.27;;;;;;;;;;5059762;28;20025;-83
2021/06/03 10:57:59;;;;;;;1.35;1.25;;;;;;;;;;5062862;28;20051;-82
2021/06/03 11:00:26;;;;;;;3.17;1.30;;;;;;;;;;5061539;28;20040;-83
2021/06/03 11:02:59;;;;;;;2.08;1.40;;;;;;;;;;5064608;28;20051;-84
2021/06/03 11:05:32;;;;;;;5.28;2.28;;;;;;;;;;5062045;28;20037;-84
2021/06/03 11:08:23;;;;;;;4.18;1.73;;;;;;;;;;5060864;28;20033;-84
2021/06/03 11:10:48;;;;;;;5.97;1.02;;;;;;;;;;5077664;28;20437;-84
2021/06/03 11:13:19;;;;;;;4.53;1.30;;;;;;;;;;5062279;28;20024;-83
2021/06/03 11:16:07;;;;;;;1.63;0.95;;;;;;;;;;5060211;28;20104;-76
2021/06/03 11:18:44;;;;;;;2.03;0.93;;;;;;;;;;5059243;28;20044;-76
2021/06/03 11:21:33;;;;;;;1.83;0.73;;;;;;;;;;5057899;28;20143;-76
2021/06/03 11:24:01;;;;;;;7.90;1.25;;;;;;;;;;5044292;28;20104;-76
2021/06/03 11:26:39;;;;;;;4.80;1.33;;;;;;;;;;5055224;28;20029;-76
2021/06/03 11:29:07;;;;;;;3.03;1.00;;;;;;;;;;5057684;28;20120;-76
2021/06/03 11:31:33;;;;;;;3.03;1.05;;;;;;;;;;5057166;28;20019;-76
2021/06/03 11:34:14;;;;;;;4.05;1.00;;;;;;;;;;5056948;28;20036;-76
2021/06/03 11:36:42;;;;;;;2.55;1.20;;;;;;;;;;5058433;28;20091;-76
2021/06/03 11:39:33;;;;;;;2.95;1.00;;;;;;;;;;5059040;28;20054;-77
2021/06/03 11:42:36;;;;;;;2.08;1.10;;;;;;;;;;5057382;28;20131;-78
2021/06/03 11:45:07;;;;;;;1.23;0.90;;;;;;;;;;5057777;28;20056;-78
2021/06/03 11:47:39;;;;;;;3.30;1.20;;;;;;;;;;5059968;28;20033;-78
2021/06/03 11:50:16;;;;;;;5.22;1.20;;;;;;;;;;5056549;28;20542;-77
2021/06/03 11:52:54;;;;;;;5.78;1.20;;;;;;;;;;5052048;28;20406;-77
2021/06/03 11:55:33;;;;;;;1.50;1.00;;;;;;;;;;5036070;28;20040;-78
2021/06/03 11:58:15;;;;;;;4.45;1.10;;;;;;;;;;5036581;28;20044;-81
2021/06/03 12:00:44;;;;;;;2.03;1.00;;;;;;;;;;5036341;28;20073;-78
2021/06/03 12:03:28;;;;;;;4.88;0.90;;;;;;;;;;5036609;28;20048;-77
2021/06/03 12:05:56;;;;;;;4.30;1.02;;;;;;;;;;5034227;28;20041;-77
2021/06/03 12:08:37;;;;;;;5.30;2.35;;;;;;;;;;5036055;28;20060;-77
2021/06/03 12:11:05;;;;;;;2.95;1.25;;;;;;;;;;5034888;28;20029;-78
2021/06/03 12:13:31;;;;;;;2.47;1.20;;;;;;;;;;5034083;28;20029;-78
2021/06/03 12:15:56;;;;;;;2.45;1.02;;;;;;;;;;5035762;28;20570;-77
2021/06/03 12:18:22;;;;;;;1.85;1.00;;;;;;;;;;5035480;28;20531;-76
2021/06/03 12:20:48;;;;;;;3.33;1.27;;;;;;;;;;5035461;28;20038;-78
2021/06/03 12:23:13;;;;;;;3.60;1.27;;;;;;;;;;5035541;28;20132;-79
2021/06/03 12:25:41;;;;;;;1.90;1.30;;;;;;;;;;5035747;28;20061;-78
2021/06/03 12:28:09;;;;;;;2.83;1.20;;;;;;;;;;5037048;28;20036;-77
2021/06/03 12:30:37;;;;;;;1.40;1.27;;;;;;;;;;5035702;28;20017;-79
2021/06/03 12:33:06;;;;;;;1.27;1.13;;;;;;;;;;5039451;28;20096;-79
2021/06/03 12:35:58;;;;;;;2.28;1.15;;;;;;;;;;5038412;28;20041;-78
2021/06/03 12:38:36;;;;;;;2.25;1.17;;;;;;;;;;5036469;28;20034;-78
2021/06/03 12:41:08;;;;;;;1.75;1.10;;;;;;;;;;5056268;28;20064;-80
2021/06/03 12:43:43;;;;;;;1.42;1.10;;;;;;;;;;5064219;28;20451;-77
2021/06/03 12:46:09;;;;;;;1.92;1.42;;;;;;;;;;5073712;28;20375;-78
2021/06/03 12:48:35;;;;;;;6.25;3.17;;;;;;;;;;5074478;28;20032;-76
2021/06/03 12:51:06;;;;;;;4.03;1.27;;;;;;;;;;5074366;28;20344;-77
2021/06/03 12:53:31;;;;;;;3.55;1.20;;;;;;;;;;5073226;28;20043;-74
2021/06/03 12:55:57;;;;;;;2.83;1.08;;;;;;;;;;5073214;28;20056;-75
2021/06/03 12:58:25;;;;;;;2.40;1.20;;;;;;;;;;5074327;28;20119;-76
2021/06/03 13:00:51;;;;;;;1.95;1.13;;;;;;;;;;5057640;28;20384;-77
2021/06/03 13:03:24;;;;;;;1.45;1.08;;;;;;;;;;5053872;28;20125;-75
2021/06/03 13:06:07;;;;;;;3.92;1.10;;;;;;;;;;5054034;28;20041;-76
2021/06/03 13:08:45;;;;;;;3.55;1.00;;;;;;;;;;5053909;28;20056;-76
2021/06/03 13:11:26;;;;;;;3.85;1.23;;;;;;;;;;5053179;28;20047;-74
2021/06/03 13:13:51;;;;;;;3.22;1.20;;;;;;;;;;5053947;28;20040;-76
2021/06/03 13:16:24;;;;;;;1.40;1.02;;;;;;;;;;5054383;28;20032;-75
2021/06/03 13:18:51;;;;;;;3.50;1.23;;;;;;;;;;5039815;28;20063;-82
2021/06/03 13:21:18;;;;;;;1.40;1.30;;;;;;;;;;5056915;28;20082;-79
2021/06/03 13:23:43;;;;;;;3.50;1.30;;;;;;;;;;5054363;28;20124;-79
2021/06/03 13:26:17;;;;;;;1.88;1.17;;;;;;;;;;5056943;28;20076;-79
2021/06/03 13:28:42;;;;;;;2.53;1.20;;;;;;;;;;5054268;28;20044;-81
2021/06/03 13:31:09;;;;;;;4.90;1.38;;;;;;;;;;5052451;28;20029;-75
2021/06/03 13:33:35;;;;;;;4.47;1.02;;;;;;;;;;5053760;28;20033;-79
2021/06/03 13:36:07;;;;;;;3.67;1.77;;;;;;;;;;5052161;28;20041;-77
2021/06/03 13:38:41;;;;;;;3.15;1.33;;;;;;;;;;5053406;28;20513;-77
2021/06/03 13:41:06;;;;;;;2.20;1.20;;;;;;;;;;5052295;28;20044;-75
2021/06/03 13:43:34;;;;;;;6.85;4.50;;;;;;;;;;5053222;28;20106;-76
2021/06/03 13:46:07;;;;;;;3.63;1.60;;;;;;;;;;5053765;28;20033;-77
2021/06/03 13:48:38;;;;;;;1.73;1.20;;;;;;;;;;5053145;28;20119;-76
2021/06/03 13:51:05;;;;;;;2.83;1.42;;;;;;;;;;5052276;28;20033;-76
2021/06/03 13:53:39;;;;;;;2.47;1.50;;;;;;;;;;5053313;28;20094;-77
2021/06/03 13:56:15;;;;;;;3.20;1.30;;;;;;;;;;5053058;28;20037;-77
2021/06/03 13:59:01;;;;;;;2.58;1.58;;;;;;;;;;5053375;28;20033;-76
2021/06/03 14:01:30;;;;;;;3.10;1.20;;;;;;;;;;5052898;28;20521;-77
2021/06/03 14:04:00;;;;;;;4.88;1.52;;;;;;;;;;5053443;28;20044;-78
2021/06/03 14:06:31;;;;;;;3.53;1.33;;;;;;;;;;5053577;28;20040;-75
2021/06/03 14:08:56;;;;;;;2.22;1.40;;;;;;;;;;5052299;28;20047;-77
2021/06/03 14:11:41;;;;;;;3.35;1.60;;;;;;;;;;5053021;28;20033;-75
2021/06/03 14:14:13;;;;;;;5.05;1.35;;;;;;;;;;5052873;28;20510;-75
2021/06/03 14:16:44;;;;;;;2.38;1.10;;;;;;;;;;5053288;28;20032;-75
2021/06/03 14:19:22;;;;;;;3.47;1.42;;;;;;;;;;5049002;28;20043;-75
2021/06/03 14:22:10;;;;;;;7.80;1.42;;;;;;;;;;5048802;28;20483;-77
2021/06/03 14:24:43;;;;;;;9.10;1.60;;;;;;;;;;5052461;28;20494;-75
2021/06/03 14:27:13;;;;;;;1.52;1.25;;;;;;;;;;5052756;28;20033;-74
2021/06/03 14:29:57;;;;;;;2.42;1.23;;;;;;;;;;5052909;28;20069;-74
2021/06/03 14:32:31;;;;;;;2.88;1.50;;;;;;;;;;5052793;28;20044;-75
2021/06/03 14:35:24;;;;;;;5.75;1.33;;;;;;;;;;5051168;28;20029;-75
2021/06/03 14:38:03;;;;;;;2.15;1.48;;;;;;;;;;5030795;28;20092;-75
2021/06/03 14:40:31;;;;;;;5.28;2.13;;;;;;;;;;5032530;28;20041;-75
2021/06/03 14:43:07;;;;;;;1.92;1.33;;;;;;;;;;5032395;28;20196;-76
2021/06/03 14:45:33;;;;;;;1.73;1.40;;;;;;;;;;5032582;28;20045;-76
2021/06/03 14:47:59;;;;;;;2.47;1.40;;;;;;;;;;5032555;28;20037;-76
2021/06/03 14:50:31;;;;;;;5.93;1.52;;;;;;;;;;5032905;28;20095;-76
2021/06/03 14:52:58;;;;;;;1.58;1.45;;;;;;;;;;5032750;28;20033;-76
2021/06/03 14:55:30;;;;;;;5.80;1.50;;;;;;;;;;5032595;28;20060;-76
2021/06/03 14:57:56;;;;;;;2.15;1.40;;;;;;;;;;5032512;28;20379;-76